Time;durP1;ratioP1;P1;durP2;ratioP2;P2;SDS_P1;SDS_P2;PMS_P1;PMS_P2;Temp;Humidity;BMP_temperature;BMP_pressure;BME280_temperature;BME280_humidity;BME280_pressure;Samples;Min_cycle;Max_cycle;Signal;HPM_P1;HPM_P2
2021/09/21 00:01:11;;;;;;;11.80;4.40;;;12.40;1.00;;;;;;5006768;28;20523;-79
2021/09/21 00:03:37;;;;;;;12.27;5.17;;;12.40;1.00;;;;;;5007127;28;20479;-79
2021/09/21 00:06:04;;;;;;;14.40;4.20;;;12.30;1.00;;;;;;5003180;28;20458;-79
2021/09/21 00:08:31;;;;;;;10.73;4.57;;;12.40;1.00;;;;;;5005321;28;20288;-79
2021/09/21 00:10:59;;;;;;;9.90;4.77;;;12.30;1.00;;;;;;5006191;28;20446;-79
2021/09/21 00:13:26;;;;;;;9.53;4.23;;;12.30;1.00;;;;;;5006492;28;20462;-78
2021/09/21 00:15:52;;;;;;;10.93;4.80;;;12.40;1.00;;;;;;5005992;28;20526;-79
2021/09/21 00:18:18;;;;;;;9.20;4.90;;;12.40;1.00;;;;;;5005589;28;20515;-79
2021/09/21 00:20:44;;;;;;;11.33;5.73;;;12.40;1.00;;;;;;5002606;28;20979;-79
2021/09/21 00:23:10;;;;;;;7.47;4.50;;;12.40;1.00;;;;;;5007326;28;20196;-79
2021/09/21 00:25:35;;;;;;;13.03;4.60;;;12.40;1.00;;;;;;5006808;28;20275;-79
2021/09/21 00:28:02;;;;;;;7.93;5.00;;;12.40;1.00;;;;;;5006455;28;20982;-79
2021/09/21 00:30:28;;;;;;;10.17;4.80;;;12.30;1.00;;;;;;5007622;28;20438;-79
2021/09/21 00:33:02;;;;;;;7.43;4.70;;;12.30;1.00;;;;;;5006607;28;20509;-79
2021/09/21 00:35:28;;;;;;;8.97;4.80;;;12.30;1.00;;;;;;5009025;28;20477;-79
2021/09/21 00:37:54;;;;;;;10.73;4.03;;;12.30;1.00;;;;;;5002283;28;20463;-79
2021/09/21 00:40:20;;;;;;;8.20;4.70;;;12.30;1.00;;;;;;5005918;28;20450;-78
2021/09/21 00:42:46;;;;;;;7.07;3.90;;;12.30;1.00;;;;;;5007363;28;20266;-79
2021/09/21 00:45:23;;;;;;;9.90;4.87;;;12.20;1.00;;;;;;5008085;28;20195;-78
2021/09/21 00:47:53;;;;;;;8.60;4.83;;;12.30;1.00;;;;;;5005462;28;20455;-79
2021/09/21 00:50:20;;;;;;;9.93;4.30;;;12.20;1.00;;;;;;5004273;28;20556;-79
2021/09/21 00:52:48;;;;;;;8.93;4.50;;;12.20;1.00;;;;;;5004711;28;20454;-79
2021/09/21 00:55:14;;;;;;;9.77;5.00;;;12.20;1.00;;;;;;5009000;28;20470;-79
2021/09/21 00:57:41;;;;;;;10.20;5.10;;;12.10;1.00;;;;;;5005337;28;20780;-79
2021/09/21 01:00:09;;;;;;;10.57;4.77;;;12.20;1.00;;;;;;5004739;28;20253;-79
2021/09/21 01:02:34;;;;;;;9.63;4.90;;;12.20;1.00;;;;;;5004566;28;20481;-79
2021/09/21 01:05:01;;;;;;;10.63;4.67;;;12.30;1.00;;;;;;5007880;28;20824;-79
2021/09/21 01:07:27;;;;;;;8.80;5.30;;;12.30;1.00;;;;;;5007470;28;20189;-79
2021/09/21 01:10:07;;;;;;;7.93;4.97;;;12.30;1.00;;;;;;5007329;28;20454;-79
2021/09/21 01:12:32;;;;;;;9.80;5.20;;;12.30;1.00;;;;;;5004776;28;20589;-79
2021/09/21 01:14:59;;;;;;;8.17;5.10;;;12.20;1.00;;;;;;5006760;28;20497;-79
2021/09/21 01:17:25;;;;;;;8.53;5.53;;;12.20;1.00;;;;;;5008317;28;20473;-79
2021/09/21 01:19:50;;;;;;;7.90;5.07;;;12.20;1.00;;;;;;5006636;28;20820;-79
2021/09/21 01:22:16;;;;;;;11.23;5.10;;;12.20;1.00;;;;;;5008546;28;20188;-79
2021/09/21 01:24:41;;;;;;;7.67;5.07;;;12.10;1.00;;;;;;5005313;28;20537;-79
2021/09/21 01:27:07;;;;;;;8.50;4.97;;;12.10;1.00;;;;;;5005971;28;21758;-79
2021/09/21 01:29:33;;;;;;;7.73;5.10;;;12.10;1.00;;;;;;5005654;28;20940;-79
2021/09/21 01:31:58;;;;;;;7.63;5.10;;;12.10;1.00;;;;;;5004179;28;20246;-79
2021/09/21 01:34:25;;;;;;;10.90;5.60;;;12.20;1.00;;;;;;5008429;28;20499;-79
2021/09/21 01:36:51;;;;;;;10.10;4.70;;;12.20;1.00;;;;;;5007274;28;20692;-79
2021/09/21 01:39:17;;;;;;;7.90;5.33;;;12.20;1.00;;;;;;5004396;28;20454;-79
2021/09/21 01:41:44;;;;;;;8.77;5.17;;;12.20;1.00;;;;;;5004659;28;20471;-79
2021/09/21 01:44:10;;;;;;;11.60;5.67;;;12.20;1.00;;;;;;5006225;28;21071;-79
2021/09/21 01:46:36;;;;;;;9.63;5.23;;;12.20;1.00;;;;;;5007099;28;20458;-79
2021/09/21 01:49:02;;;;;;;8.13;5.10;;;12.20;1.00;;;;;;5005275;28;22217;-79
2021/09/21 01:51:33;;;;;;;8.90;5.40;;;12.10;1.00;;;;;;5005941;28;20511;-79
2021/09/21 01:54:12;;;;;;;10.07;5.20;;;12.10;1.00;;;;;;5000339;28;20450;-79
2021/09/21 01:59:23;;;;;;;9.40;4.90;;;12.00;1.00;;;;;;5010377;28;20482;-79
2021/09/21 02:01:49;;;;;;;9.80;5.47;;;11.90;1.00;;;;;;5010047;28;20554;-79
2021/09/21 02:04:14;;;;;;;9.40;6.63;;;11.90;1.00;;;;;;5008255;28;20188;-79
2021/09/21 02:06:41;;;;;;;7.53;4.73;;;11.90;1.00;;;;;;5009184;28;20199;-79
2021/09/21 02:09:12;;;;;;;10.23;6.10;;;11.80;1.00;;;;;;5011080;28;20238;-78
2021/09/21 02:11:40;;;;;;;5.27;4.77;;;11.80;1.00;;;;;;5008539;28;20462;-78
2021/09/21 02:14:10;;;;;;;16.40;6.10;;;11.80;1.00;;;;;;5012061;28;20450;-79
2021/09/21 02:16:36;;;;;;;7.03;5.20;;;11.70;1.00;;;;;;5010761;28;20482;-79
2021/09/21 02:19:02;;;;;;;6.83;5.00;;;11.70;1.00;;;;;;5008291;28;20816;-79
2021/09/21 02:21:28;;;;;;;9.23;5.60;;;11.70;1.00;;;;;;5012144;28;20461;-78
2021/09/21 02:23:55;;;;;;;6.97;5.77;;;11.60;1.00;;;;;;5007084;28;20446;-79
2021/09/21 02:26:21;;;;;;;5.87;4.40;;;11.60;1.00;;;;;;5011225;28;20838;-79
2021/09/21 02:28:47;;;;;;;6.17;5.10;;;11.60;1.00;;;;;;5010193;28;20458;-79
2021/09/21 02:31:13;;;;;;;7.20;5.73;;;11.50;1.00;;;;;;5007619;28;20566;-79
2021/09/21 02:33:38;;;;;;;8.63;5.83;;;11.30;1.00;;;;;;5008449;28;20188;-79
2021/09/21 02:36:05;;;;;;;11.60;5.53;;;11.30;1.00;;;;;;5009898;28;20762;-79
2021/09/21 02:38:35;;;;;;;6.07;5.03;;;11.30;1.00;;;;;;5012642;28;20202;-79
2021/09/21 02:41:02;;;;;;;9.97;4.80;;;11.30;1.00;;;;;;5006684;28;20998;-79
2021/09/21 02:43:28;;;;;;;8.40;6.50;;;11.30;1.00;;;;;;5010262;28;21004;-79
2021/09/21 02:45:54;;;;;;;6.80;4.83;;;11.20;1.00;;;;;;5011662;28;20551;-78
2021/09/21 02:48:20;;;;;;;10.47;5.90;;;11.20;1.00;;;;;;5009024;28;20219;-78
2021/09/21 02:50:46;;;;;;;8.37;5.40;;;11.20;1.00;;;;;;5006854;28;20617;-79
2021/09/21 02:53:12;;;;;;;7.90;5.53;;;11.00;1.00;;;;;;5008881;28;20458;-79
2021/09/21 02:55:38;;;;;;;7.70;5.60;;;11.00;1.00;;;;;;5007507;28;20497;-78
2021/09/21 02:58:04;;;;;;;5.80;5.20;;;11.00;1.00;;;;;;5008917;28;21632;-78
2021/09/21 03:00:29;;;;;;;10.87;5.77;;;11.00;1.00;;;;;;5012739;28;20192;-79
2021/09/21 03:02:59;;;;;;;7.70;5.63;;;11.00;1.00;;;;;;5005925;28;20294;-79
2021/09/21 03:05:28;;;;;;;11.90;7.03;;;10.90;1.00;;;;;;5008264;28;20188;-79
2021/09/21 03:07:59;;;;;;;6.83;5.83;;;11.00;1.00;;;;;;5007343;28;20452;-79
2021/09/21 03:18:24;;;;;;;9.23;6.87;;;10.90;1.00;;;;;;5015599;28;20462;-79
2021/09/21 03:20:50;;;;;;;6.97;5.90;;;10.90;1.00;;;;;;5007769;28;20447;-79
2021/09/21 03:23:15;;;;;;;8.60;5.90;;;10.90;1.00;;;;;;5007814;28;20434;-79
2021/09/21 03:25:41;;;;;;;8.60;7.00;;;10.90;1.00;;;;;;5006002;28;20199;-78
2021/09/21 03:28:07;;;;;;;7.40;6.47;;;10.90;1.00;;;;;;5004174;28;20202;-79
2021/09/21 03:30:33;;;;;;;8.10;6.23;;;10.90;1.00;;;;;;5008293;28;20188;-79
2021/09/21 03:32:59;;;;;;;8.43;5.93;;;10.90;1.00;;;;;;5007674;28;20891;-78
2021/09/21 03:35:24;;;;;;;7.77;6.27;;;10.90;1.00;;;;;;5007226;28;20250;-78
2021/09/21 03:37:50;;;;;;;6.30;5.70;;;10.90;1.00;;;;;;5008389;28;20184;-79
2021/09/21 03:40:16;;;;;;;9.30;5.87;;;10.90;1.00;;;;;;5004426;28;20192;-78
2021/09/21 03:42:42;;;;;;;7.93;6.43;;;10.90;1.00;;;;;;5004382;28;20693;-79
2021/09/21 03:45:08;;;;;;;7.23;5.60;;;10.90;1.00;;;;;;5005562;28;20337;-78
2021/09/21 03:47:33;;;;;;;7.03;5.47;;;10.90;1.00;;;;;;5003619;28;20203;-78
2021/09/21 03:49:59;;;;;;;9.10;5.60;;;11.00;1.00;;;;;;5003723;28;20482;-78
2021/09/21 03:52:25;;;;;;;14.00;7.03;;;10.90;1.00;;;;;;5004757;28;20282;-78
2021/09/21 03:54:50;;;;;;;7.53;6.10;;;10.90;1.00;;;;;;5004904;28;20286;-78
2021/09/21 03:57:16;;;;;;;8.87;5.63;;;10.90;1.00;;;;;;5005925;28;20203;-79
2021/09/21 03:59:41;;;;;;;9.03;5.63;;;10.70;1.00;;;;;;5005772;28;20274;-78
2021/09/21 04:02:07;;;;;;;6.73;5.60;;;10.70;1.00;;;;;;5005346;28;20254;-78
2021/09/21 04:04:32;;;;;;;8.53;6.03;;;10.60;1.00;;;;;;5008885;28;20191;-79
2021/09/21 04:06:58;;;;;;;6.17;5.57;;;10.60;1.00;;;;;;5002832;28;20188;-78
2021/09/21 04:09:24;;;;;;;7.13;6.00;;;10.70;1.00;;;;;;5007024;28;20594;-79
2021/09/21 04:11:49;;;;;;;8.20;6.20;;;10.60;1.00;;;;;;5003333;28;20189;-78
2021/09/21 04:14:15;;;;;;;8.73;5.93;;;10.50;1.00;;;;;;5009926;28;20187;-78
2021/09/21 04:16:41;;;;;;;6.77;5.80;;;10.30;1.00;;;;;;5012826;28;20306;-79
2021/09/21 04:19:06;;;;;;;7.33;5.20;;;10.20;1.00;;;;;;5008608;28;20226;-79
2021/09/21 04:21:32;;;;;;;9.50;5.60;;;10.00;1.00;;;;;;5007501;28;23252;-79
2021/09/21 04:23:58;;;;;;;10.27;5.90;;;10.10;1.00;;;;;;4992373;28;20442;-79
2021/09/21 04:26:23;;;;;;;8.27;5.67;;;10.10;1.00;;;;;;5003085;28;20226;-77
2021/09/21 04:28:49;;;;;;;10.47;6.57;;;10.00;1.00;;;;;;5007754;28;20307;-78
2021/09/21 04:31:27;;;;;;;7.43;6.00;;;10.10;1.00;;;;;;4987390;28;20187;-79
2021/09/21 04:33:54;;;;;;;8.70;5.73;;;10.10;1.00;;;;;;5003934;28;20238;-79
2021/09/21 04:36:20;;;;;;;11.20;6.23;;;10.10;1.00;;;;;;4999639;28;20533;-79
2021/09/21 04:38:47;;;;;;;8.93;6.10;;;10.10;1.00;;;;;;5002443;28;20461;-78
2021/09/21 04:41:14;;;;;;;10.43;6.43;;;10.10;1.00;;;;;;5002673;28;20470;-80
2021/09/21 04:43:40;;;;;;;9.57;6.10;;;10.00;1.00;;;;;;5002807;28;20469;-79
2021/09/21 04:46:08;;;;;;;9.17;6.80;;;10.00;1.00;;;;;;5004216;28;20481;-79
2021/09/21 04:48:34;;;;;;;9.93;6.50;;;10.00;1.00;;;;;;5004582;28;20218;-79
2021/09/21 04:51:01;;;;;;;8.00;6.90;;;10.10;1.00;;;;;;5002608;28;20442;-78
2021/09/21 04:53:27;;;;;;;9.80;6.83;;;10.20;1.00;;;;;;5004352;28;20991;-79
2021/09/21 04:55:53;;;;;;;8.47;5.27;;;10.00;1.00;;;;;;5003516;28;20636;-79
2021/09/21 04:58:19;;;;;;;6.90;5.70;;;9.70;1.00;;;;;;5000817;28;20454;-79
2021/09/21 05:00:44;;;;;;;7.73;5.37;;;9.60;1.00;;;;;;4999195;28;20453;-79
2021/09/21 05:03:10;;;;;;;6.97;4.93;;;9.60;1.00;;;;;;5008785;28;20566;-79
2021/09/21 05:05:36;;;;;;;8.30;6.27;;;9.50;1.00;;;;;;4999737;28;20200;-78
2021/09/21 05:08:01;;;;;;;7.80;5.23;;;9.60;1.00;;;;;;5003591;28;20187;-79
2021/09/21 05:10:27;;;;;;;8.30;5.53;;;9.60;1.00;;;;;;5018243;28;20196;-79
2021/09/21 05:12:53;;;;;;;6.37;5.27;;;9.50;1.00;;;;;;5012991;28;20270;-78
2021/09/21 05:15:19;;;;;;;6.50;5.27;;;9.40;1.00;;;;;;5011701;28;20502;-79
2021/09/21 05:17:44;;;;;;;10.27;5.27;;;9.40;1.00;;;;;;5007726;28;20192;-79
2021/09/21 05:20:10;;;;;;;7.90;5.67;;;9.40;1.00;;;;;;5008304;28;20195;-79
2021/09/21 05:22:37;;;;;;;6.73;5.13;;;9.30;1.00;;;;;;5007700;28;20223;-79
2021/09/21 05:25:03;;;;;;;7.40;5.20;;;9.30;1.00;;;;;;5008958;28;20443;-79
2021/09/21 05:27:29;;;;;;;8.90;5.23;;;9.30;1.00;;;;;;5006001;28;20521;-79
2021/09/21 05:29:55;;;;;;;7.27;6.10;;;9.30;1.00;;;;;;5008003;28;20451;-79
2021/09/21 05:32:20;;;;;;;13.97;5.97;;;9.30;1.00;;;;;;5008325;28;20788;-78
2021/09/21 05:34:46;;;;;;;8.80;5.70;;;9.30;1.00;;;;;;5013307;28;20186;-79
2021/09/21 05:37:12;;;;;;;8.97;6.83;;;9.30;1.00;;;;;;5012563;28;20180;-79
2021/09/21 05:39:37;;;;;;;6.67;5.53;;;9.20;1.00;;;;;;5011335;28;20862;-79
2021/09/21 05:42:03;;;;;;;10.70;5.83;;;9.20;1.00;;;;;;5010528;28;20740;-79
2021/09/21 05:44:29;;;;;;;9.50;5.80;;;9.20;1.00;;;;;;5012907;28;20191;-79
2021/09/21 05:46:54;;;;;;;8.97;6.10;;;9.20;1.00;;;;;;5011469;28;20192;-78
2021/09/21 05:49:20;;;;;;;10.30;7.20;;;9.30;1.00;;;;;;5014859;28;20188;-79
2021/09/21 05:51:45;;;;;;;12.63;7.57;;;9.30;1.00;;;;;;5008578;28;20541;-78
2021/09/21 05:54:11;;;;;;;10.70;6.90;;;9.50;1.00;;;;;;5013396;28;20191;-78
2021/09/21 05:56:37;;;;;;;10.70;7.40;;;9.50;1.00;;;;;;5010486;28;21059;-78
2021/09/21 05:59:02;;;;;;;9.03;7.60;;;9.50;1.00;;;;;;5016386;28;20196;-78
2021/09/21 06:01:30;;;;;;;9.70;8.30;;;9.60;1.00;;;;;;5014599;28;20979;-78
2021/09/21 06:03:56;;;;;;;11.97;7.60;;;9.70;1.00;;;;;;5004754;28;20200;-79
2021/09/21 06:06:22;;;;;;;9.50;7.30;;;9.80;1.00;;;;;;5008884;28;20481;-79
2021/09/21 06:08:48;;;;;;;14.73;6.87;;;9.80;1.00;;;;;;5010192;28;21179;-78
2021/09/21 06:11:20;;;;;;;11.37;8.17;;;9.80;1.00;;;;;;5007123;28;20438;-78
2021/09/21 06:13:47;;;;;;;9.70;6.93;;;9.70;1.00;;;;;;5004911;28;20975;-78
2021/09/21 06:16:15;;;;;;;10.17;7.23;;;9.60;1.00;;;;;;5009959;28;20520;-78
2021/09/21 06:18:40;;;;;;;12.10;8.10;;;9.80;1.00;;;;;;5010212;28;20935;-78
2021/09/21 06:21:06;;;;;;;10.53;7.03;;;9.70;1.00;;;;;;5008517;28;20450;-78
2021/09/21 06:23:32;;;;;;;11.23;8.03;;;9.70;1.00;;;;;;5008052;28;20211;-78
2021/09/21 06:25:58;;;;;;;12.93;6.50;;;9.80;1.00;;;;;;5007883;28;20195;-78
2021/09/21 06:28:23;;;;;;;12.70;6.80;;;10.00;1.00;;;;;;5008077;28;20295;-78
2021/09/21 06:30:49;;;;;;;9.33;7.17;;;9.90;1.00;;;;;;5010068;28;20654;-78
2021/09/21 06:33:14;;;;;;;13.57;8.83;;;9.90;1.00;;;;;;5008161;28;20207;-78
2021/09/21 06:35:40;;;;;;;10.03;7.80;;;9.90;1.00;;;;;;5005432;28;20204;-78
2021/09/21 06:38:07;;;;;;;11.23;8.37;;;10.00;1.00;;;;;;5010470;28;20184;-78
2021/09/21 06:40:33;;;;;;;9.60;7.60;;;9.90;1.00;;;;;;5006450;28;20443;-78
2021/09/21 06:42:58;;;;;;;9.83;8.10;;;10.10;1.00;;;;;;5004689;28;20191;-79
2021/09/21 06:45:24;;;;;;;11.77;8.07;;;10.20;1.00;;;;;;5008591;28;21134;-78
2021/09/21 06:47:51;;;;;;;10.93;7.77;;;10.30;1.00;;;;;;5008205;28;20294;-78
2021/09/21 06:50:17;;;;;;;9.90;7.70;;;10.40;1.00;;;;;;5005297;28;20451;-78
2021/09/21 06:52:42;;;;;;;9.70;7.97;;;10.50;1.00;;;;;;5007238;28;20270;-78
2021/09/21 06:55:09;;;;;;;9.73;7.90;;;10.50;1.00;;;;;;5006462;28;20966;-78
2021/09/21 06:57:35;;;;;;;10.00;7.30;;;10.40;1.00;;;;;;5007661;28;20187;-78
2021/09/21 07:00:03;;;;;;;12.03;9.03;;;10.50;1.00;;;;;;5009749;28;20503;-78
2021/09/21 07:02:28;;;;;;;12.73;8.00;;;10.50;1.00;;;;;;5009822;28;20488;-78
2021/09/21 07:04:54;;;;;;;13.53;7.50;;;10.60;1.00;;;;;;5007786;28;20446;-78
2021/09/21 07:07:19;;;;;;;9.23;7.23;;;10.70;1.00;;;;;;5005341;28;20381;-79
2021/09/21 07:09:45;;;;;;;8.23;6.90;;;10.80;1.00;;;;;;5006742;28;20207;-78
2021/09/21 07:12:11;;;;;;;12.33;7.10;;;10.80;1.00;;;;;;5005264;28;20823;-78
2021/09/21 07:14:36;;;;;;;10.93;6.90;;;10.90;1.00;;;;;;5005812;28;20179;-78
2021/09/21 07:17:02;;;;;;;12.30;8.10;;;11.10;1.00;;;;;;5002052;28;24921;-78
2021/09/21 07:19:28;;;;;;;9.50;7.47;;;11.00;1.00;;;;;;5001291;28;20255;-78
2021/09/21 07:21:53;;;;;;;14.90;7.77;;;11.20;1.00;;;;;;5009777;28;20190;-78
2021/09/21 07:24:19;;;;;;;9.40;7.60;;;11.40;1.00;;;;;;5006732;28;20788;-78
2021/09/21 07:26:50;;;;;;;9.00;7.20;;;11.50;1.00;;;;;;5008468;28;20203;-78
2021/09/21 07:29:16;;;;;;;11.20;7.57;;;11.70;1.00;;;;;;5005738;28;20191;-79
2021/09/21 07:31:42;;;;;;;9.20;6.90;;;11.90;1.00;;;;;;5009910;28;20458;-78
2021/09/21 07:34:08;;;;;;;8.27;7.30;;;12.10;1.00;;;;;;5007391;28;21007;-78
2021/09/21 07:36:34;;;;;;;11.53;7.30;;;12.30;1.00;;;;;;5003832;28;20784;-78
2021/09/21 07:38:59;;;;;;;9.10;7.93;;;12.30;1.00;;;;;;5006460;28;20529;-78
2021/09/21 07:41:25;;;;;;;9.87;8.13;;;12.30;1.00;;;;;;5006137;28;20179;-78
2021/09/21 07:43:50;;;;;;;9.90;7.80;;;12.40;1.00;;;;;;5009409;28;20545;-78
2021/09/21 07:46:16;;;;;;;9.37;6.90;;;12.40;1.00;;;;;;5006289;28;20946;-78
2021/09/21 07:48:42;;;;;;;11.33;7.90;;;12.40;1.00;;;;;;5005861;28;20239;-78
2021/09/21 07:51:09;;;;;;;10.07;7.23;;;12.40;1.00;;;;;;5004891;28;20266;-78
2021/09/21 07:53:34;;;;;;;8.23;6.83;;;12.40;1.00;;;;;;5005380;28;20455;-79
2021/09/21 07:56:00;;;;;;;10.87;7.20;;;12.60;1.00;;;;;;5002271;28;20475;-78
2021/09/21 07:58:26;;;;;;;9.27;7.10;;;12.80;1.00;;;;;;5003242;28;20708;-78
2021/09/21 08:00:54;;;;;;;8.03;6.70;;;12.80;1.00;;;;;;5002391;28;20184;-79
2021/09/21 08:03:21;;;;;;;10.00;7.40;;;12.90;1.00;;;;;;5001495;28;20196;-78
2021/09/21 08:05:46;;;;;;;10.33;7.50;;;12.90;1.00;;;;;;5008696;28;20559;-78
2021/09/21 08:08:15;;;;;;;9.87;6.83;;;12.80;1.00;;;;;;5000541;28;20787;-78
2021/09/21 08:10:41;;;;;;;8.97;6.93;;;13.00;1.00;;;;;;5004673;28;20199;-79
2021/09/21 08:13:06;;;;;;;9.37;7.03;;;12.90;1.00;;;;;;5002620;28;20454;-78
2021/09/21 08:15:32;;;;;;;10.60;7.23;;;13.10;1.00;;;;;;5003489;28;21336;-79
2021/09/21 08:17:59;;;;;;;6.93;6.07;;;13.10;1.00;;;;;;5003098;28;20197;-79
2021/09/21 08:20:26;;;;;;;10.73;6.80;;;13.10;1.00;;;;;;4999611;28;21493;-78
2021/09/21 08:22:51;;;;;;;13.87;6.47;;;13.20;1.00;;;;;;5005446;28;20532;-79
2021/09/21 08:25:18;;;;;;;6.63;5.60;;;13.40;1.00;;;;;;5006010;28;21249;-79
2021/09/21 08:27:44;;;;;;;10.80;6.90;;;13.40;1.00;;;;;;5007493;28;20246;-79
2021/09/21 08:30:11;;;;;;;10.93;7.30;;;13.50;1.00;;;;;;5006548;28;20457;-78
2021/09/21 08:32:37;;;;;;;8.80;6.17;;;13.60;1.00;;;;;;5008904;28;20451;-79
2021/09/21 08:35:06;;;;;;;8.10;6.00;;;13.60;1.00;;;;;;5003809;28;20460;-79
2021/09/21 08:37:34;;;;;;;9.80;6.40;;;13.70;1.00;;;;;;5007303;28;21463;-78
2021/09/21 08:40:00;;;;;;;12.23;6.87;;;13.80;1.00;;;;;;5006674;28;20867;-79
2021/09/21 08:42:26;;;;;;;7.37;6.37;;;13.90;1.00;;;;;;5004144;28;20505;-79
2021/09/21 08:44:52;;;;;;;11.90;5.60;;;14.00;1.00;;;;;;5003924;28;20447;-78
2021/09/21 08:47:19;;;;;;;8.63;5.77;;;14.10;1.00;;;;;;5004378;28;20446;-78
2021/09/21 08:49:46;;;;;;;7.90;4.33;;;14.20;1.00;;;;;;5005626;28;20474;-79
2021/09/21 08:52:12;;;;;;;7.63;5.73;;;14.30;1.00;;;;;;5005392;28;20481;-79
2021/09/21 08:54:37;;;;;;;7.83;5.33;;;14.20;1.00;;;;;;5006818;28;20438;-79
2021/09/21 08:57:03;;;;;;;9.00;6.13;;;14.30;1.00;;;;;;5007475;28;20584;-79
2021/09/21 08:59:34;;;;;;;13.57;6.70;;;14.30;1.00;;;;;;5009349;28;20312;-79
2021/09/21 09:02:08;;;;;;;13.20;7.27;;;14.40;1.00;;;;;;5006414;28;20956;-79
2021/09/21 09:04:35;;;;;;;10.13;5.13;;;14.50;1.00;;;;;;5007153;28;20488;-79
2021/09/21 09:07:01;;;;;;;8.90;5.80;;;14.50;1.00;;;;;;5008370;28;20461;-78
2021/09/21 09:09:31;;;;;;;10.40;5.40;;;14.50;1.00;;;;;;5006883;28;20511;-78
2021/09/21 09:12:03;;;;;;;9.23;4.87;;;14.60;1.00;;;;;;5011674;28;20541;-78
2021/09/21 09:14:37;;;;;;;11.13;5.17;;;14.60;1.00;;;;;;5007949;28;20485;-78
2021/09/21 09:17:06;;;;;;;12.30;5.50;;;14.70;1.00;;;;;;5011285;28;20454;-79
2021/09/21 09:19:40;;;;;;;13.50;6.13;;;14.60;1.00;;;;;;5010079;28;20489;-78
2021/09/21 09:22:09;;;;;;;16.67;6.13;;;14.60;1.00;;;;;;5007050;28;20468;-78
2021/09/21 09:24:50;;;;;;;12.83;5.97;;;14.70;1.00;;;;;;5010041;28;20443;-79
2021/09/21 09:27:18;;;;;;;16.97;5.50;;;14.70;1.00;;;;;;5009632;28;20472;-79
2021/09/21 09:29:58;;;;;;;13.43;4.63;;;14.70;1.00;;;;;;5008485;28;20438;-79
2021/09/21 09:32:24;;;;;;;12.73;5.17;;;14.70;1.00;;;;;;5010941;28;20990;-78
2021/09/21 09:34:50;;;;;;;17.23;5.43;;;14.80;1.00;;;;;;5009598;28;20489;-79
2021/09/21 09:37:18;;;;;;;18.27;6.10;;;14.80;1.00;;;;;;5009936;28;20557;-79
2021/09/21 09:39:45;;;;;;;15.00;5.50;;;14.90;1.00;;;;;;5007692;28;20274;-79
2021/09/21 09:42:13;;;;;;;16.23;5.07;;;14.90;1.00;;;;;;5013151;28;20446;-79
2021/09/21 09:44:40;;;;;;;19.80;5.13;;;15.10;1.00;;;;;;5009872;28;20451;-79
2021/09/21 09:47:07;;;;;;;15.80;4.70;;;15.10;1.00;;;;;;5010764;28;20451;-78
2021/09/21 09:49:39;;;;;;;17.10;4.40;;;15.20;1.00;;;;;;5010003;28;20475;-78
2021/09/21 09:52:10;;;;;;;20.40;4.93;;;15.30;1.00;;;;;;5007356;28;20460;-79
2021/09/21 09:54:38;;;;;;;17.20;4.60;;;15.40;1.00;;;;;;5009627;28;20502;-78
2021/09/21 09:57:05;;;;;;;19.93;4.67;;;15.50;1.00;;;;;;5009528;28;20575;-78
2021/09/21 09:59:32;;;;;;;21.97;3.50;;;15.50;1.00;;;;;;5006474;28;20486;-79
2021/09/21 10:01:58;;;;;;;22.00;4.70;;;15.50;1.00;;;;;;5004906;28;20451;-79
2021/09/21 10:04:24;;;;;;;19.67;4.53;;;15.50;1.00;;;;;;5012547;28;20458;-78
2021/09/21 10:06:50;;;;;;;19.07;4.60;;;15.60;1.00;;;;;;5008253;28;20307;-79
2021/09/21 10:09:17;;;;;;;20.47;5.10;;;15.60;1.00;;;;;;5009042;28;21100;-78
2021/09/21 10:11:52;;;;;;;22.03;5.03;;;15.70;1.00;;;;;;5007681;28;20553;-79
2021/09/21 10:14:23;;;;;;;18.73;4.30;;;15.80;1.00;;;;;;4997034;28;20458;-79
2021/09/21 10:17:03;;;;;;;21.10;4.50;;;15.90;1.00;;;;;;5004772;28;20900;-78
2021/09/21 10:19:30;;;;;;;21.17;4.20;;;16.00;1.00;;;;;;5008100;28;20542;-78
2021/09/21 10:21:56;;;;;;;20.87;4.67;;;16.10;1.00;;;;;;5001758;28;20442;-78
2021/09/21 10:24:37;;;;;;;20.10;4.80;;;16.10;1.00;;;;;;5003304;28;20909;-78
2021/09/21 10:27:09;;;;;;;20.67;4.63;;;16.20;1.00;;;;;;5007030;28;20462;-79
2021/09/21 10:29:35;;;;;;;17.33;3.60;;;16.30;1.00;;;;;;5001409;28;20956;-78
2021/09/21 10:32:12;;;;;;;14.00;3.47;;;16.40;1.00;;;;;;5005505;28;20825;-79
2021/09/21 10:34:40;;;;;;;13.80;3.27;;;16.20;1.00;;;;;;5004945;28;20470;-78
2021/09/21 10:37:06;;;;;;;11.70;2.80;;;16.40;1.00;;;;;;5005557;28;20479;-79
2021/09/21 10:39:31;;;;;;;10.40;3.30;;;16.30;1.00;;;;;;5006250;28;20478;-78
2021/09/21 10:42:09;;;;;;;12.53;2.80;;;16.40;1.00;;;;;;5007715;28;20183;-78
2021/09/21 10:44:35;;;;;;;14.03;3.53;;;16.50;1.00;;;;;;5000240;28;20657;-79
2021/09/21 10:47:05;;;;;;;7.37;3.30;;;16.50;1.00;;;;;;5005899;28;20457;-79
2021/09/21 10:49:41;;;;;;;12.17;3.10;;;16.40;1.00;;;;;;5008090;28;20490;-79
2021/09/21 10:52:12;;;;;;;9.07;2.83;;;16.50;1.00;;;;;;5003599;28;20461;-78
2021/09/21 10:54:42;;;;;;;7.13;2.80;;;16.60;1.00;;;;;;5006497;28;20454;-79
2021/09/21 10:57:38;;;;;;;7.17;3.20;;;16.40;1.00;;;;;;4998465;28;20474;-79
2021/09/21 11:00:16;;;;;;;9.87;3.30;;;16.40;1.00;;;;;;5006896;28;20454;-79
2021/09/21 11:02:46;;;;;;;10.93;3.73;;;16.40;1.00;;;;;;5009738;28;20457;-79
2021/09/21 11:05:15;;;;;;;8.93;2.50;;;16.40;1.00;;;;;;5007352;28;20557;-78
2021/09/21 11:08:01;;;;;;;7.83;3.10;;;16.50;1.00;;;;;;5011583;28;20478;-79
2021/09/21 11:10:30;;;;;;;6.70;2.83;;;16.60;1.00;;;;;;5006485;28;20462;-79
2021/09/21 11:12:57;;;;;;;5.80;2.77;;;16.60;1.00;;;;;;5006628;28;21030;-79
2021/09/21 11:15:26;;;;;;;6.37;2.80;;;16.60;1.00;;;;;;5002308;28;20870;-79
2021/09/21 11:18:10;;;;;;;8.23;3.10;;;16.60;1.00;;;;;;5002705;28;20450;-79
2021/09/21 11:20:49;;;;;;;7.17;2.60;;;16.60;1.00;;;;;;5003390;28;20466;-79
2021/09/21 11:23:16;;;;;;;6.33;2.67;;;16.70;1.00;;;;;;5009169;28;20443;-79
2021/09/21 11:25:44;;;;;;;7.73;3.43;;;16.70;1.00;;;;;;4995815;28;20459;-78
2021/09/21 11:28:10;;;;;;;8.43;3.77;;;16.60;1.00;;;;;;5003075;28;20470;-78
2021/09/21 11:30:36;;;;;;;11.60;3.33;;;16.60;1.00;;;;;;5001439;28;20446;-78
2021/09/21 11:33:35;;;;;;;7.07;3.10;;;16.70;1.00;;;;;;5003456;28;20214;-77
2021/09/21 11:36:06;;;;;;;7.87;2.90;;;16.60;1.00;;;;;;5006645;28;20485;-78
2021/09/21 11:38:44;;;;;;;5.57;3.00;;;16.70;1.00;;;;;;5004565;28;20454;-77
2021/09/21 11:41:11;;;;;;;11.03;2.50;;;16.70;1.00;;;;;;5006046;28;20450;-78
2021/09/21 11:43:38;;;;;;;6.20;2.40;;;16.80;1.00;;;;;;5000974;28;24360;-77
2021/09/21 11:46:04;;;;;;;6.17;2.90;;;16.80;1.00;;;;;;4998362;28;20805;-78
2021/09/21 11:48:30;;;;;;;6.53;3.07;;;16.90;1.00;;;;;;4999944;28;20510;-78
2021/09/21 11:50:56;;;;;;;5.90;2.60;;;16.80;1.00;;;;;;5002294;28;20570;-78
2021/09/21 11:53:25;;;;;;;6.07;2.70;;;16.70;1.00;;;;;;5005161;28;20194;-78
2021/09/21 11:55:56;;;;;;;6.00;2.40;;;16.80;1.00;;;;;;4998818;28;20521;-78
2021/09/21 11:58:31;;;;;;;6.10;2.70;;;16.80;1.00;;;;;;5003925;28;20451;-78
2021/09/21 12:00:59;;;;;;;6.93;2.60;;;16.90;1.00;;;;;;5005013;28;20456;-78
2021/09/21 12:03:27;;;;;;;6.27;2.80;;;16.90;1.00;;;;;;5002759;28;20545;-78
2021/09/21 12:05:56;;;;;;;7.13;2.50;;;16.90;1.00;;;;;;5003565;28;20489;-78
2021/09/21 12:08:29;;;;;;;6.20;2.47;;;17.00;1.00;;;;;;5004728;28;20532;-78
2021/09/21 12:10:57;;;;;;;6.63;2.60;;;16.80;1.00;;;;;;5004461;28;20473;-78
2021/09/21 12:13:27;;;;;;;7.63;2.57;;;16.90;1.00;;;;;;5000340;28;20451;-78
2021/09/21 12:15:58;;;;;;;6.03;2.40;;;16.90;1.00;;;;;;5001819;28;20462;-77
2021/09/21 12:18:25;;;;;;;6.70;3.10;;;16.80;1.00;;;;;;4996653;28;20474;-78
2021/09/21 12:21:02;;;;;;;6.60;2.77;;;16.90;1.00;;;;;;5002252;28;20458;-78
2021/09/21 12:23:30;;;;;;;5.50;2.47;;;16.90;1.00;;;;;;4997488;28;20481;-78
2021/09/21 12:25:57;;;;;;;6.37;3.13;;;16.80;1.00;;;;;;5000126;28;20460;-78
2021/09/21 12:28:38;;;;;;;6.83;3.10;;;16.80;1.00;;;;;;5003336;28;20476;-78
2021/09/21 12:31:14;;;;;;;5.90;2.03;;;16.70;1.00;;;;;;5007118;28;20524;-78
2021/09/21 12:33:41;;;;;;;7.77;2.73;;;16.80;1.00;;;;;;5006435;28;20531;-78
2021/09/21 12:36:20;;;;;;;5.70;2.80;;;16.80;1.00;;;;;;5006731;28;20481;-78
2021/09/21 12:39:01;;;;;;;6.20;2.63;;;16.80;1.00;;;;;;4999512;28;20468;-78
2021/09/21 12:41:29;;;;;;;7.93;3.60;;;16.80;1.00;;;;;;5004693;28;21070;-78
2021/09/21 12:43:56;;;;;;;7.57;3.37;;;16.90;1.00;;;;;;5005136;28;20453;-78
2021/09/21 12:46:23;;;;;;;6.70;2.83;;;16.90;1.00;;;;;;5011042;28;20453;-78
2021/09/21 12:48:49;;;;;;;6.87;3.00;;;17.00;1.00;;;;;;5002482;28;21022;-78
2021/09/21 12:51:15;;;;;;;6.10;2.80;;;16.90;1.00;;;;;;5006207;28;20459;-78
2021/09/21 12:53:40;;;;;;;5.80;2.80;;;17.00;1.00;;;;;;5003420;28;21235;-78
2021/09/21 12:56:09;;;;;;;6.60;2.60;;;17.00;1.00;;;;;;5005916;28;20211;-78
2021/09/21 12:58:38;;;;;;;7.07;2.90;;;17.10;1.00;;;;;;5006846;28;20482;-78
2021/09/21 13:01:05;;;;;;;5.53;2.83;;;17.10;1.00;;;;;;5002647;28;20570;-78
2021/09/21 13:03:32;;;;;;;5.47;2.83;;;17.10;1.00;;;;;;5005085;28;20550;-78
2021/09/21 13:05:58;;;;;;;5.37;2.30;;;17.20;1.00;;;;;;4993884;28;20593;-78
2021/09/21 13:08:24;;;;;;;6.17;2.70;;;17.20;1.00;;;;;;5001239;28;20447;-78